Time;durP1;ratioP1;P1;durP2;ratioP2;P2;SDS_P1;SDS_P2;PMS_P1;PMS_P2;Temp;Humidity;BMP_temperature;BMP_pressure;BME280_temperature;BME280_humidity;BME280_pressure;Samples;Min_cycle;Max_cycle;Signal;HPM_P1;HPM_P2
2023/05/26 00:00:43;;;;;;;24.00;5.05;;;9.70;99.90;;;;;;5098648;28;20100;-57
2023/05/26 00:03:09;;;;;;;26.15;5.25;;;9.80;99.90;;;;;;5099483;28;20040;-56
2023/05/26 00:05:39;;;;;;;24.08;5.10;;;9.80;99.90;;;;;;5098310;28;20044;-57
2023/05/26 00:08:07;;;;;;;21.45;4.35;;;9.70;99.90;;;;;;5099397;28;20044;-56
2023/05/26 00:10:32;;;;;;;18.55;4.35;;;9.70;99.90;;;;;;5097866;28;20040;-57
2023/05/26 00:12:58;;;;;;;20.02;4.03;;;9.60;99.90;;;;;;5099386;28;20044;-56
2023/05/26 00:15:24;;;;;;;24.17;4.90;;;9.60;99.90;;;;;;5098455;28;20101;-56
2023/05/26 00:17:50;;;;;;;22.67;4.70;;;9.60;99.90;;;;;;5098485;28;20047;-56
2023/05/26 00:20:16;;;;;;;25.52;5.15;;;9.50;99.90;;;;;;5099524;28;20054;-56
2023/05/26 00:22:42;;;;;;;23.30;4.18;;;9.50;99.90;;;;;;5097605;28;20090;-57
2023/05/26 00:25:08;;;;;;;29.20;5.15;;;9.60;99.90;;;;;;5099317;28;20745;-56
2023/05/26 00:27:34;;;;;;;24.73;4.95;;;9.50;99.90;;;;;;5097292;28;20522;-56
2023/05/26 00:29:59;;;;;;;21.33;4.78;;;9.40;99.90;;;;;;5099033;28;20040;-56
2023/05/26 00:32:25;;;;;;;17.85;4.32;;;9.40;99.90;;;;;;5097870;28;20047;-56
2023/05/26 00:34:52;;;;;;;20.55;4.28;;;9.50;99.90;;;;;;5098413;28;20070;-56
2023/05/26 00:37:17;;;;;;;23.60;4.63;;;9.50;99.90;;;;;;5098596;28;20048;-56
2023/05/26 00:39:43;;;;;;;25.27;4.60;;;9.40;99.90;;;;;;5097510;28;20109;-57
2023/05/26 00:42:09;;;;;;;22.35;5.85;;;9.30;99.90;;;;;;5080538;28;20424;-56
2023/05/26 00:44:35;;;;;;;24.20;4.28;;;9.30;99.90;;;;;;5097115;28;20488;-56
2023/05/26 00:47:01;;;;;;;21.17;4.50;;;9.40;99.90;;;;;;5099152;28;20059;-56
2023/05/26 00:49:26;;;;;;;25.15;4.70;;;9.30;99.90;;;;;;5097388;28;20403;-56
2023/05/26 00:51:52;;;;;;;21.58;4.72;;;9.30;99.90;;;;;;5097979;28;20086;-56
2023/05/26 00:54:20;;;;;;;21.73;4.85;;;9.30;99.90;;;;;;5098239;28;20447;-57
2023/05/26 00:56:46;;;;;;;21.08;4.40;;;9.30;99.90;;;;;;5078951;28;20051;-56
2023/05/26 00:59:13;;;;;;;20.85;4.45;;;9.30;99.90;;;;;;5080616;28;20048;-56
2023/05/26 01:01:39;;;;;;;26.17;5.45;;;9.30;99.90;;;;;;5078422;28;20043;-57
2023/05/26 01:04:06;;;;;;;25.33;4.68;;;9.10;99.90;;;;;;5098830;28;20051;-56
2023/05/26 01:06:31;;;;;;;29.08;4.93;;;9.10;99.90;;;;;;5097291;28;20040;-56
2023/05/26 01:08:58;;;;;;;21.40;4.03;;;9.00;99.90;;;;;;5097986;28;20048;-56
2023/05/26 01:11:40;;;;;;;21.02;4.25;;;9.10;99.90;;;;;;5097924;28;20048;-56
2023/05/26 01:14:15;;;;;;;;;;;9.10;99.90;;;;;;5097339;28;20052;-56
2023/05/26 01:16:52;;;;;;;22.88;4.47;;;9.10;99.90;;;;;;5098624;28;19931;-56
2023/05/26 01:20:01;;;;;;;22.25;5.10;;;9.10;99.90;;;;;;5096932;28;20047;-56
2023/05/26 01:22:36;;;;;;;23.63;5.15;;;9.10;99.90;;;;;;5096947;28;20055;-56
2023/05/26 01:25:38;;;;;;;22.20;4.68;;;9.10;99.90;;;;;;5098273;28;20040;-56
2023/05/26 01:28:07;;;;;;;23.88;4.72;;;9.10;99.90;;;;;;5097199;28;20618;-56
2023/05/26 01:30:38;;;;;;;25.52;5.15;;;9.10;99.90;;;;;;5097356;28;20044;-57
2023/05/26 01:33:03;;;;;;;24.65;4.68;;;9.10;99.90;;;;;;5097994;28;20100;-57
2023/05/26 01:35:29;;;;;;;25.02;4.28;;;9.00;99.90;;;;;;5096038;28;20076;-57
2023/05/26 01:37:56;;;;;;;19.13;4.05;;;9.10;99.90;;;;;;5098488;28;20099;-57
2023/05/26 01:40:22;;;;;;;28.73;5.30;;;9.10;99.90;;;;;;5096730;28;20052;-57
2023/05/26 01:43:08;;;;;;;24.45;4.20;;;9.10;99.90;;;;;;5101215;28;20449;-57
2023/05/26 01:45:43;;;;;;;29.23;4.53;;;9.10;99.90;;;;;;5101067;28;20052;-57
2023/05/26 01:48:09;;;;;;;27.17;5.70;;;9.00;99.90;;;;;;5100528;28;20047;-57
2023/05/26 01:50:47;;;;;;;22.95;4.75;;;9.00;99.90;;;;;;5102401;28;20553;-57
2023/05/26 01:53:14;;;;;;;25.88;5.00;;;9.00;99.90;;;;;;5100505;28;20048;-56
2023/05/26 01:55:42;;;;;;;22.35;5.25;;;8.90;99.90;;;;;;5083638;28;20040;-56
2023/05/26 01:58:08;;;;;;;23.25;3.92;;;8.90;99.90;;;;;;5101113;28;20127;-56
2023/05/26 02:00:33;;;;;;;21.10;4.18;;;9.00;99.90;;;;;;5100872;28;20044;-62
2023/05/26 02:02:59;;;;;;;23.77;4.20;;;8.90;99.90;;;;;;5101942;28;20048;-57
2023/05/26 02:05:25;;;;;;;21.08;4.18;;;8.90;99.90;;;;;;5100414;28;20032;-58
2023/05/26 02:07:51;;;;;;;27.15;4.65;;;8.90;99.90;;;;;;5102081;28;20048;-58
2023/05/26 02:10:16;;;;;;;24.63;4.63;;;9.00;99.90;;;;;;5100024;28;20050;-57
2023/05/26 02:12:42;;;;;;;21.90;4.90;;;8.90;99.90;;;;;;5102093;28;20043;-57
2023/05/26 02:15:08;;;;;;;21.35;4.00;;;9.00;99.90;;;;;;5100189;28;20169;-57
2023/05/26 02:17:34;;;;;;;23.77;4.35;;;8.90;99.90;;;;;;5101001;28;20778;-57
2023/05/26 02:20:00;;;;;;;18.73;3.92;;;8.90;99.90;;;;;;5101288;28;20055;-56
2023/05/26 02:22:26;;;;;;;24.45;4.68;;;9.00;99.90;;;;;;5100109;28;20065;-57
2023/05/26 02:24:51;;;;;;;20.52;4.70;;;8.90;99.90;;;;;;5101567;28;20039;-58
2023/05/26 02:27:17;;;;;;;19.33;4.68;;;8.90;99.90;;;;;;5099766;28;20044;-57
2023/05/26 02:29:43;;;;;;;25.33;4.97;;;9.00;99.90;;;;;;5101595;28;20112;-57
2023/05/26 02:32:08;;;;;;;23.67;4.40;;;8.90;99.90;;;;;;5099817;28;20047;-57
2023/05/26 02:34:34;;;;;;;21.05;4.60;;;8.90;99.90;;;;;;5101057;28;20588;-57
2023/05/26 02:37:00;;;;;;;23.13;4.45;;;8.90;99.90;;;;;;5100965;28;20117;-57
2023/05/26 02:39:26;;;;;;;27.35;4.28;;;8.90;99.90;;;;;;5099746;28;20517;-56
2023/05/26 02:41:52;;;;;;;20.17;4.10;;;8.90;99.90;;;;;;5101464;28;20069;-58
2023/05/26 02:44:18;;;;;;;19.77;4.47;;;8.90;99.90;;;;;;5079836;28;20428;-57
2023/05/26 02:46:43;;;;;;;22.48;4.47;;;8.90;99.90;;;;;;5080195;28;20048;-57
2023/05/26 02:49:09;;;;;;;21.33;4.10;;;8.90;99.90;;;;;;5079514;28;20464;-56
2023/05/26 02:51:35;;;;;;;20.75;4.07;;;8.80;99.90;;;;;;5081072;28;20377;-57
2023/05/26 02:54:01;;;;;;;22.42;4.72;;;8.90;99.90;;;;;;5079796;28;20028;-56
2023/05/26 02:56:27;;;;;;;22.00;4.05;;;8.80;99.90;;;;;;5077802;28;20447;-57
2023/05/26 02:58:52;;;;;;;24.05;4.40;;;8.90;99.90;;;;;;5080192;28;20050;-58
2023/05/26 03:01:18;;;;;;;22.63;4.22;;;8.80;99.90;;;;;;5078561;28;20404;-57
2023/05/26 03:03:44;;;;;;;21.02;3.88;;;8.80;99.90;;;;;;5080864;28;20040;-57
2023/05/26 03:06:10;;;;;;;25.88;4.35;;;8.80;99.90;;;;;;5078652;28;20044;-57
2023/05/26 03:08:37;;;;;;;24.38;4.50;;;8.80;99.90;;;;;;5080707;28;20041;-57
2023/05/26 03:11:03;;;;;;;16.35;3.50;;;8.80;99.90;;;;;;5061605;28;20040;-57
2023/05/26 03:13:29;;;;;;;26.15;4.60;;;8.80;99.90;;;;;;5079447;28;20040;-59
2023/05/26 03:15:55;;;;;;;22.23;4.60;;;8.70;99.90;;;;;;5080147;28;20063;-57
2023/05/26 03:18:20;;;;;;;19.83;4.05;;;8.80;99.90;;;;;;5078814;28;20055;-58
2023/05/26 03:20:46;;;;;;;21.70;4.75;;;8.70;99.90;;;;;;5080517;28;20036;-58
2023/05/26 03:23:14;;;;;;;23.17;4.32;;;8.70;99.90;;;;;;5078239;28;20120;-57
2023/05/26 03:25:40;;;;;;;22.23;4.32;;;8.70;99.90;;;;;;5082255;28;20048;-58
2023/05/26 03:28:06;;;;;;;22.25;4.18;;;8.70;99.90;;;;;;5099081;28;20124;-57
2023/05/26 03:30:31;;;;;;;17.35;4.30;;;8.60;99.90;;;;;;5099576;28;20040;-58
2023/05/26 03:32:57;;;;;;;22.42;4.72;;;8.70;99.90;;;;;;5099772;28;20048;-58
2023/05/26 03:35:23;;;;;;;23.42;4.35;;;8.70;99.90;;;;;;5098871;28;20043;-58
2023/05/26 03:37:49;;;;;;;22.80;4.57;;;8.60;99.90;;;;;;5082077;28;20119;-57
2023/05/26 03:40:15;;;;;;;22.15;4.88;;;8.60;99.90;;;;;;5098637;28;20044;-58
2023/05/26 03:42:40;;;;;;;23.75;4.88;;;8.60;99.90;;;;;;5078610;28;20053;-58
2023/05/26 03:45:07;;;;;;;23.52;4.35;;;8.60;99.90;;;;;;5078629;28;20057;-57
2023/05/26 03:47:32;;;;;;;25.77;4.07;;;8.60;99.90;;;;;;5079270;28;20048;-57
2023/05/26 03:49:58;;;;;;;22.25;4.43;;;8.60;99.90;;;;;;5078109;28;20104;-58
2023/05/26 03:52:26;;;;;;;24.67;4.72;;;8.50;99.90;;;;;;5078568;28;20045;-58
2023/05/26 03:54:51;;;;;;;24.95;4.72;;;8.50;99.90;;;;;;5078036;28;20048;-58
2023/05/26 03:57:17;;;;;;;21.15;4.43;;;8.50;99.90;;;;;;5077591;28;20104;-58
2023/05/26 03:59:43;;;;;;;21.98;4.30;;;8.70;99.90;;;;;;5078257;28;20043;-57
2023/05/26 04:02:08;;;;;;;20.00;3.90;;;8.50;99.90;;;;;;5078014;28;20048;-58
2023/05/26 04:04:34;;;;;;;17.60;4.03;;;8.60;99.90;;;;;;5078335;28;20044;-57
2023/05/26 04:07:00;;;;;;;16.20;3.40;;;8.60;99.90;;;;;;5077614;28;20071;-57
2023/05/26 04:09:26;;;;;;;20.35;3.92;;;8.60;99.90;;;;;;5078009;28;20068;-58
2023/05/26 04:11:52;;;;;;;21.40;4.10;;;8.60;99.90;;;;;;5077768;28;20041;-58
2023/05/26 04:14:17;;;;;;;23.63;4.20;;;8.60;99.90;;;;;;5077414;28;20063;-57
2023/05/26 04:16:43;;;;;;;22.33;4.13;;;8.60;99.90;;;;;;5079317;28;20120;-58
2023/05/26 04:19:08;;;;;;;18.80;4.25;;;8.70;99.90;;;;;;5077785;28;20036;-58
2023/05/26 04:21:36;;;;;;;17.95;3.47;;;8.70;99.90;;;;;;5077561;28;20067;-58
2023/05/26 04:24:02;;;;;;;23.75;4.18;;;8.80;99.90;;;;;;5078464;28;20068;-57
2023/05/26 04:26:33;;;;;;;26.13;4.65;;;8.70;99.90;;;;;;5077696;28;20048;-57
2023/05/26 04:29:01;;;;;;;19.85;4.85;;;8.80;99.90;;;;;;5078835;28;20166;-56
2023/05/26 04:31:30;;;;;;;21.17;3.85;;;8.90;99.90;;;;;;5077090;28;20108;-56
2023/05/26 04:33:58;;;;;;;22.73;4.20;;;9.00;99.90;;;;;;5078504;28;20087;-57
2023/05/26 04:36:25;;;;;;;22.38;4.68;;;9.00;99.90;;;;;;5077428;28;20124;-56
2023/05/26 04:38:51;;;;;;;21.67;4.80;;;9.10;99.90;;;;;;5077838;28;20044;-56
2023/05/26 04:41:18;;;;;;;19.52;3.78;;;9.10;99.90;;;;;;5078220;28;20136;-56
2023/05/26 04:43:44;;;;;;;17.50;3.92;;;9.30;99.90;;;;;;5076840;28;20056;-57
2023/05/26 04:46:11;;;;;;;18.95;3.92;;;9.40;99.90;;;;;;5078564;28;20043;-56
2023/05/26 04:48:37;;;;;;;16.48;4.07;;;9.40;99.90;;;;;;5076604;28;21024;-56
2023/05/26 04:51:05;;;;;;;25.25;4.13;;;9.50;99.90;;;;;;5078928;28;20408;-56
2023/05/26 04:53:31;;;;;;;25.83;4.00;;;9.60;99.90;;;;;;5076902;28;20115;-57
2023/05/26 04:56:00;;;;;;;20.08;4.22;;;9.60;99.90;;;;;;5078318;28;20122;-56
2023/05/26 04:58:26;;;;;;;21.45;4.15;;;9.80;99.90;;;;;;5059745;28;20048;-57
2023/05/26 05:00:53;;;;;;;21.63;4.13;;;9.80;99.90;;;;;;5076881;28;20048;-57
2023/05/26 05:03:20;;;;;;;26.60;6.38;;;10.00;99.90;;;;;;5077592;28;20591;-57
2023/05/26 05:05:47;;;;;;;23.15;4.13;;;10.10;99.90;;;;;;5075803;28;20055;-57
2023/05/26 05:08:13;;;;;;;19.40;4.10;;;10.10;99.90;;;;;;5078218;28;20045;-57
2023/05/26 05:10:39;;;;;;;27.58;4.80;;;10.20;99.90;;;;;;5076673;28;20044;-56
2023/05/26 05:13:05;;;;;;;20.58;4.30;;;10.30;99.90;;;;;;5078029;28;20044;-57
2023/05/26 05:15:30;;;;;;;23.27;5.22;;;10.40;99.90;;;;;;5077245;28;20060;-57
2023/05/26 05:17:58;;;;;;;25.30;4.45;;;10.60;99.90;;;;;;5076034;28;20516;-56
2023/05/26 05:20:25;;;;;;;18.65;4.07;;;10.70;99.90;;;;;;5077698;28;20060;-57
2023/05/26 05:22:50;;;;;;;16.90;4.00;;;10.70;99.90;;;;;;5076263;28;20059;-57
2023/05/26 05:25:17;;;;;;;23.42;4.10;;;10.90;99.90;;;;;;5077597;28;20115;-56
2023/05/26 05:27:42;;;;;;;20.52;4.40;;;10.90;99.90;;;;;;5057584;28;20110;-56
2023/05/26 05:30:08;;;;;;;20.67;4.03;;;11.00;99.90;;;;;;5059536;28;20052;-57
2023/05/26 05:32:34;;;;;;;24.02;4.25;;;11.00;99.90;;;;;;5076080;28;20036;-57
2023/05/26 05:35:00;;;;;;;17.92;4.32;;;11.10;99.90;;;;;;5076316;28;20089;-57
2023/05/26 05:37:26;;;;;;;20.90;3.30;;;11.20;99.90;;;;;;5077463;28;20040;-56
2023/05/26 05:39:51;;;;;;;20.92;5.18;;;11.20;99.90;;;;;;5075873;28;20104;-57
2023/05/26 05:42:17;;;;;;;24.65;5.00;;;11.40;99.90;;;;;;5077471;28;20510;-57
2023/05/26 05:44:43;;;;;;;19.48;3.75;;;11.50;99.90;;;;;;5076002;28;20135;-57
2023/05/26 05:47:08;;;;;;;26.50;4.13;;;11.40;99.90;;;;;;5077935;28;20048;-57
2023/05/26 05:49:34;;;;;;;22.70;4.03;;;11.50;99.90;;;;;;5077028;28;20048;-58
2023/05/26 05:52:00;;;;;;;19.13;3.72;;;11.60;99.90;;;;;;5076688;28;20496;-57
2023/05/26 05:54:25;;;;;;;21.30;3.95;;;11.60;99.90;;;;;;5077592;28;20060;-58
2023/05/26 05:56:51;;;;;;;23.10;3.70;;;11.60;99.90;;;;;;5076379;28;20039;-58
2023/05/26 05:59:16;;;;;;;18.77;4.00;;;11.70;99.90;;;;;;5078048;28;20110;-57
2023/05/26 06:01:42;;;;;;;23.55;4.70;;;11.80;99.90;;;;;;5057830;28;20078;-56
2023/05/26 06:04:08;;;;;;;21.73;3.90;;;11.80;99.90;;;;;;5077555;28;20048;-57
2023/05/26 06:06:33;;;;;;;19.33;4.20;;;11.80;99.90;;;;;;5076841;28;20033;-55
2023/05/26 06:08:59;;;;;;;20.45;4.43;;;12.00;99.90;;;;;;5076993;28;20086;-58
2023/05/26 06:11:25;;;;;;;20.35;4.85;;;12.00;99.90;;;;;;5077528;28;20041;-58
2023/05/26 06:13:51;;;;;;;21.13;4.15;;;12.20;99.90;;;;;;5075834;28;20051;-58
2023/05/26 06:16:17;;;;;;;18.33;4.25;;;12.20;99.90;;;;;;5077688;28;20068;-56
2023/05/26 06:18:42;;;;;;;18.90;3.22;;;12.10;99.90;;;;;;5075720;28;20037;-57
2023/05/26 06:21:08;;;;;;;19.88;4.90;;;12.20;99.90;;;;;;5077711;28;20044;-57
2023/05/26 06:23:34;;;;;;;17.77;4.18;;;12.20;99.90;;;;;;5076250;28;20040;-56
2023/05/26 06:25:59;;;;;;;19.20;3.13;;;12.30;99.90;;;;;;5076870;28;20119;-57
2023/05/26 06:28:25;;;;;;;17.90;4.15;;;12.30;99.90;;;;;;5061153;28;20072;-57
2023/05/26 06:30:51;;;;;;;18.48;3.50;;;12.40;99.90;;;;;;5079680;28;20041;-57
2023/05/26 06:33:16;;;;;;;16.52;3.25;;;12.40;99.90;;;;;;5081033;28;20040;-57
2023/05/26 06:35:42;;;;;;;16.60;4.32;;;12.50;99.90;;;;;;5079021;28;20401;-57
2023/05/26 06:38:08;;;;;;;20.33;3.45;;;12.60;99.90;;;;;;5063286;28;20416;-57
2023/05/26 06:40:33;;;;;;;17.65;3.70;;;12.60;99.90;;;;;;5044816;28;20045;-56
2023/05/26 06:42:59;;;;;;;20.65;4.22;;;12.60;99.90;;;;;;5072374;28;20080;-57
2023/05/26 06:45:25;;;;;;;20.52;3.88;;;12.60;99.90;;;;;;5060457;28;20125;-57
2023/05/26 06:47:50;;;;;;;14.73;3.00;;;12.70;99.90;;;;;;5041611;28;20041;-57
2023/05/26 06:50:16;;;;;;;11.27;2.90;;;12.60;99.90;;;;;;5060933;28;20103;-57
2023/05/26 06:52:42;;;;;;;17.80;3.33;;;12.70;99.90;;;;;;5059153;28;20098;-57
2023/05/26 06:55:08;;;;;;;17.17;4.00;;;12.80;99.90;;;;;;5060767;28;20071;-57
2023/05/26 06:57:34;;;;;;;15.13;3.30;;;12.80;99.90;;;;;;5059082;28;20033;-57
2023/05/26 06:59:59;;;;;;;16.75;3.20;;;12.90;99.90;;;;;;5060564;28;20041;-57
2023/05/26 07:02:25;;;;;;;17.83;3.35;;;13.00;99.90;;;;;;5059859;28;20395;-57
2023/05/26 07:04:51;;;;;;;17.15;4.00;;;13.00;99.90;;;;;;5059121;28;20041;-57
2023/05/26 07:07:16;;;;;;;17.63;3.70;;;12.90;99.90;;;;;;5060597;28;20045;-57
2023/05/26 07:09:42;;;;;;;17.30;3.08;;;12.90;99.90;;;;;;5058826;28;20048;-57
2023/05/26 07:12:09;;;;;;;18.75;3.78;;;13.00;99.90;;;;;;5060813;28;20053;-57
2023/05/26 07:14:35;;;;;;;15.52;2.72;;;13.00;99.90;;;;;;5058773;28;20045;-57
2023/05/26 07:17:01;;;;;;;15.43;3.17;;;13.10;99.90;;;;;;5060259;28;20063;-57
2023/05/26 07:19:26;;;;;;;18.08;3.13;;;13.20;99.90;;;;;;5059201;28;20056;-56
2023/05/26 07:21:52;;;;;;;11.20;2.80;;;13.30;99.90;;;;;;5059266;28;20041;-57
2023/05/26 07:24:17;;;;;;;16.42;2.70;;;13.20;99.90;;;;;;5060044;28;20136;-57
2023/05/26 07:26:43;;;;;;;13.20;3.45;;;13.30;99.90;;;;;;5058494;28;20041;-57
2023/05/26 07:29:09;;;;;;;16.50;3.42;;;13.30;99.90;;;;;;5060282;28;20064;-57
2023/05/26 07:31:35;;;;;;;16.65;3.17;;;13.20;99.90;;;;;;5058007;28;20033;-57
2023/05/26 07:34:00;;;;;;;19.45;3.90;;;13.40;99.90;;;;;;5059977;28;20037;-58
2023/05/26 07:36:26;;;;;;;18.15;3.10;;;13.50;99.90;;;;;;5058683;28;20042;-57
2023/05/26 07:38:51;;;;;;;17.60;4.70;;;13.60;99.90;;;;;;5058685;28;20045;-57
2023/05/26 07:41:17;;;;;;;17.80;3.50;;;13.70;99.90;;;;;;5059113;28;20189;-57
2023/05/26 07:43:43;;;;;;;18.40;3.53;;;13.60;99.90;;;;;;5058239;28;20072;-57
2023/05/26 07:46:08;;;;;;;18.88;3.53;;;13.70;99.90;;;;;;5059878;28;20052;-57
2023/05/26 07:48:34;;;;;;;15.52;3.28;;;13.80;99.90;;;;;;5057711;28;20076;-57
2023/05/26 07:51:00;;;;;;;17.88;3.30;;;13.80;99.90;;;;;;5060478;28;20413;-57
2023/05/26 07:53:25;;;;;;;16.38;4.25;;;13.60;99.90;;;;;;5057741;28;20115;-57
2023/05/26 07:55:51;;;;;;;16.48;4.05;;;13.70;99.90;;;;;;5059185;28;20171;-57
2023/05/26 07:58:17;;;;;;;10.68;2.22;;;13.70;99.90;;;;;;5059274;28;20055;-57
2023/05/26 08:00:43;;;;;;;18.42;4.35;;;13.70;99.90;;;;;;5057995;28;20140;-57
2023/05/26 08:03:08;;;;;;;15.88;2.95;;;13.70;99.90;;;;;;5059453;28;20052;-57
2023/05/26 08:05:34;;;;;;;12.68;3.08;;;13.80;99.90;;;;;;5057371;28;20041;-58
2023/05/26 08:08:00;;;;;;;14.55;3.28;;;14.00;99.90;;;;;;5059907;28;20041;-57
2023/05/26 08:10:25;;;;;;;18.52;3.42;;;14.00;99.90;;;;;;5057635;28;20041;-57
2023/05/26 08:12:52;;;;;;;16.33;3.55;;;14.10;99.90;;;;;;5059461;28;20152;-63
2023/05/26 08:15:20;;;;;;;12.85;2.95;;;14.00;99.90;;;;;;5058513;28;20385;-57
2023/05/26 08:17:47;;;;;;;11.90;2.85;;;14.20;99.90;;;;;;5057937;28;20557;-57
2023/05/26 08:20:13;;;;;;;13.85;3.42;;;14.20;99.90;;;;;;5041086;28;20115;-57
2023/05/26 08:22:38;;;;;;;15.27;3.15;;;14.30;99.90;;;;;;5039190;28;20087;-57
2023/05/26 08:25:04;;;;;;;16.92;4.05;;;14.30;99.90;;;;;;5059497;28;20428;-57
2023/05/26 08:27:30;;;;;;;16.20;3.78;;;14.50;99.90;;;;;;5039279;28;20049;-57
2023/05/26 08:29:56;;;;;;;14.00;3.65;;;14.50;99.90;;;;;;5058899;28;20067;-57
2023/05/26 08:32:22;;;;;;;14.60;3.58;;;14.50;99.90;;;;;;5057760;28;20091;-58
2023/05/26 08:34:48;;;;;;;14.70;3.10;;;14.70;99.90;;;;;;5057689;28;20053;-57
2023/05/26 08:37:14;;;;;;;13.57;3.38;;;14.80;99.90;;;;;;5058859;28;20127;-57
2023/05/26 08:39:41;;;;;;;16.25;3.47;;;14.60;99.90;;;;;;5038879;28;20138;-55
2023/05/26 08:42:10;;;;;;;19.05;2.78;;;14.80;99.90;;;;;;5058925;28;20194;-57
2023/05/26 08:44:36;;;;;;;20.00;3.15;;;14.50;99.90;;;;;;5056875;28;20048;-57
2023/05/26 08:47:03;;;;;;;13.20;2.72;;;14.50;99.90;;;;;;5058699;28;20538;-56
2023/05/26 08:49:39;;;;;;;17.85;4.18;;;14.70;99.90;;;;;;5057710;28;20059;-56
2023/05/26 08:52:13;;;;;;;12.20;2.90;;;14.60;99.90;;;;;;5057235;28;20041;-56
2023/05/26 08:54:42;;;;;;;16.20;4.22;;;14.80;99.90;;;;;;5058578;28;20080;-56
2023/05/26 08:57:10;;;;;;;13.40;2.83;;;14.80;99.90;;;;;;5056332;28;20044;-57
2023/05/26 08:59:37;;;;;;;15.45;3.88;;;14.80;99.90;;;;;;5058664;28;20047;-56
2023/05/26 09:02:03;;;;;;;14.13;3.22;;;15.00;99.90;;;;;;5056549;28;20053;-56
2023/05/26 09:04:30;;;;;;;18.17;4.43;;;14.80;99.90;;;;;;5057826;28;20097;-57
2023/05/26 09:06:57;;;;;;;14.20;2.85;;;14.60;99.90;;;;;;5057941;28;20044;-55
2023/05/26 09:09:23;;;;;;;18.50;3.95;;;14.50;99.90;;;;;;5056761;28;20115;-56
2023/05/26 09:11:49;;;;;;;16.55;3.38;;;14.80;99.90;;;;;;5039954;28;20049;-56
2023/05/26 09:14:20;;;;;;;13.95;2.65;;;14.70;99.90;;;;;;5056341;28;20052;-57
2023/05/26 09:16:46;;;;;;;11.50;2.57;;;15.00;99.90;;;;;;5058164;28;20106;-57
2023/05/26 09:19:17;;;;;;;16.60;3.20;;;15.00;99.90;;;;;;5056599;28;20629;-57
2023/05/26 09:21:50;;;;;;;12.98;3.17;;;15.10;99.90;;;;;;5057392;28;20045;-56
2023/05/26 09:24:19;;;;;;;17.92;4.00;;;15.20;99.90;;;;;;5057636;28;20064;-57
2023/05/26 09:26:46;;;;;;;16.27;3.88;;;15.10;99.90;;;;;;5056545;28;20045;-57
2023/05/26 09:29:12;;;;;;;17.05;3.30;;;15.00;99.90;;;;;;5039954;28;20102;-57
2023/05/26 09:31:42;;;;;;;16.23;3.10;;;15.00;99.90;;;;;;5056099;28;20091;-57
2023/05/26 09:34:09;;;;;;;16.58;3.25;;;15.20;99.90;;;;;;5057590;28;20053;-58
2023/05/26 09:36:36;;;;;;;13.88;3.13;;;15.10;99.90;;;;;;5056913;28;20079;-57
2023/05/26 09:39:03;;;;;;;13.88;2.88;;;15.30;99.90;;;;;;5056739;28;20542;-56
2023/05/26 09:41:40;;;;;;;12.93;3.80;;;15.30;99.90;;;;;;5057622;28;20045;-57
2023/05/26 09:44:16;;;;;;;13.98;2.67;;;15.30;99.90;;;;;;5073021;28;20048;-55
2023/05/26 09:46:44;;;;;;;13.52;3.97;;;15.30;99.90;;;;;;5078006;28;20144;-56
2023/05/26 09:49:12;;;;;;;15.30;3.20;;;15.40;99.90;;;;;;5076175;28;20076;-57
2023/05/26 09:51:40;;;;;;;17.08;3.10;;;15.40;99.90;;;;;;5077284;28;20129;-57
2023/05/26 09:54:06;;;;;;;11.75;2.90;;;15.60;99.90;;;;;;5077052;28;20048;-58
2023/05/26 09:56:36;;;;;;;14.73;3.45;;;15.70;99.90;;;;;;5076298;28;20075;-57
2023/05/26 09:59:07;;;;;;;11.70;2.55;;;15.60;99.90;;;;;;5077786;28;20597;-57
2023/05/26 10:01:39;;;;;;;17.27;3.60;;;15.40;99.90;;;;;;5075821;28;20128;-57
2023/05/26 10:04:09;;;;;;;17.58;4.13;;;15.40;99.90;;;;;;5080718;28;20036;-57
2023/05/26 10:06:36;;;;;;;12.82;2.97;;;15.50;99.90;;;;;;5080761;28;20099;-57
2023/05/26 10:09:06;;;;;;;16.60;3.67;;;15.60;99.90;;;;;;5062408;28;20154;-57
2023/05/26 10:11:36;;;;;;;11.88;2.90;;;15.70;99.90;;;;;;5081050;28;20075;-57
2023/05/26 10:14:02;;;;;;;14.02;3.00;;;15.70;99.90;;;;;;5079480;28;20063;-57
2023/05/26 10:16:29;;;;;;;13.98;3.10;;;15.80;99.90;;;;;;5081266;28;20033;-56
2023/05/26 10:18:55;;;;;;;14.15;4.05;;;15.50;99.90;;;;;;5079821;28;20088;-56
2023/05/26 10:21:26;;;;;;;15.32;3.05;;;15.80;99.90;;;;;;5081090;28;20516;-57
2023/05/26 10:24:06;;;;;;;17.05;3.90;;;15.80;99.90;;;;;;5080616;28;20087;-56
2023/05/26 10:26:54;;;;;;;16.75;2.95;;;15.90;99.90;;;;;;5079851;28;20048;-58
2023/05/26 10:29:29;;;;;;;15.75;3.83;;;16.00;99.90;;;;;;5081372;28;20045;-57
2023/05/26 10:31:55;;;;;;;15.52;3.13;;;16.00;99.90;;;;;;5079418;28;20094;-57
2023/05/26 10:34:42;;;;;;;13.80;3.42;;;15.90;99.90;;;;;;5080605;28;20403;-58
2023/05/26 10:37:17;;;;;;;12.88;3.42;;;15.80;99.90;;;;;;5080758;28;20300;-58
2023/05/26 10:39:44;;;;;;;16.65;3.65;;;16.10;99.90;;;;;;5078628;28;20045;-59
2023/05/26 10:42:17;;;;;;;15.70;3.30;;;16.30;99.90;;;;;;5080890;28;20460;-59
2023/05/26 10:44:54;;;;;;;13.10;2.95;;;16.20;99.90;;;;;;5079230;28;20508;-55
2023/05/26 10:47:20;;;;;;;14.40;3.25;;;16.20;99.90;;;;;;5080405;28;20100;-57
2023/05/26 10:49:59;;;;;;;15.85;3.33;;;16.10;99.90;;;;;;5080182;28;20044;-57
2023/05/26 10:52:26;;;;;;;17.13;4.55;;;15.90;99.90;;;;;;5079295;28;20041;-57
2023/05/26 10:54:53;;;;;;;16.35;3.08;;;16.00;99.90;;;;;;5080772;28;20512;-57
2023/05/26 10:57:33;;;;;;;14.50;3.28;;;15.70;99.90;;;;;;5078766;28;20044;-57
2023/05/26 11:00:18;;;;;;;12.25;2.97;;;15.70;99.90;;;;;;5080025;28;20096;-57
2023/05/26 11:02:43;;;;;;;18.60;4.05;;;15.70;99.90;;;;;;5080379;28;20063;-57
2023/05/26 11:05:31;;;;;;;14.73;3.20;;;15.80;99.90;;;;;;5079047;28;20484;-57
2023/05/26 11:07:57;;;;;;;10.93;2.80;;;16.00;99.90;;;;;;5080726;28;20116;-56
2023/05/26 11:10:23;;;;;;;12.77;2.85;;;16.10;99.90;;;;;;5078665;28;20508;-57
2023/05/26 11:12:54;;;;;;;12.88;3.45;;;16.30;99.90;;;;;;5080349;28;20079;-57
2023/05/26 11:15:27;;;;;;;13.45;3.25;;;16.20;99.90;;;;;;5061485;28;20091;-57
2023/05/26 11:17:56;;;;;;;12.85;3.10;;;16.00;99.30;;;;;;5078320;28;20086;-57
2023/05/26 11:20:23;;;;;;;15.82;3.40;;;16.30;99.90;;;;;;5079915;28;20051;-57
2023/05/26 11:22:51;;;;;;;15.43;3.38;;;16.40;99.80;;;;;;5078234;28;20036;-57
2023/05/26 11:25:17;;;;;;;12.68;3.00;;;16.80;99.90;;;;;;5080262;28;20052;-57
2023/05/26 11:27:47;;;;;;;19.25;4.18;;;16.60;99.40;;;;;;5078850;28;20474;-58
2023/05/26 11:30:13;;;;;;;15.25;3.78;;;16.50;99.90;;;;;;5078846;28;20056;-58
2023/05/26 11:32:45;;;;;;;14.93;4.03;;;16.60;99.50;;;;;;5079435;28;20056;-57
2023/05/26 11:35:24;;;;;;;17.63;3.40;;;16.60;99.60;;;;;;5059784;28;20110;-58
2023/05/26 11:37:50;;;;;;;14.45;3.40;;;16.20;99.90;;;;;;5079859;28;20045;-57
2023/05/26 11:40:16;;;;;;;14.75;3.47;;;16.10;99.90;;;;;;5078104;28;20135;-58
2023/05/26 11:42:55;;;;;;;21.15;3.88;;;16.30;99.90;;;;;;5079698;28;20070;-57
2023/05/26 11:45:21;;;;;;;15.57;3.35;;;16.20;99.90;;;;;;5079192;28;20044;-58
2023/05/26 11:47:48;;;;;;;13.60;3.50;;;16.60;99.90;;;;;;5060164;28;20100;-58
2023/05/26 11:50:14;;;;;;;14.18;3.22;;;16.70;99.90;;;;;;5079667;28;20056;-58
2023/05/26 11:52:45;;;;;;;16.42;3.72;;;16.60;98.90;;;;;;5077826;28;20041;-58
2023/05/26 11:55:11;;;;;;;11.60;2.90;;;16.70;99.90;;;;;;5079895;28;20040;-58
2023/05/26 11:57:38;;;;;;;12.30;3.53;;;16.80;99.90;;;;;;5078003;28;20098;-58
2023/05/26 12:00:09;;;;;;;14.82;3.33;;;16.80;99.90;;;;;;5078707;28;20079;-59
2023/05/26 12:02:35;;;;;;;18.40;3.65;;;16.40;99.90;;;;;;5078850;28;20079;-57
2023/05/26 12:05:26;;;;;;;15.50;3.60;;;16.60;99.90;;;;;;5077519;28;20041;-59
2023/05/26 12:08:06;;;;;;;16.65;3.42;;;16.40;99.90;;;;;;5079566;28;20044;-58
2023/05/26 12:10:32;;;;;;;16.20;3.25;;;16.50;99.90;;;;;;5077840;28;20040;-59
2023/05/26 12:12:58;;;;;;;17.42;4.10;;;16.40;99.90;;;;;;5078701;28;20127;-57
2023/05/26 12:15:25;;;;;;;16.02;3.45;;;16.20;99.90;;;;;;5078837;28;20045;-59
2023/05/26 12:17:51;;;;;;;14.93;3.20;;;16.20;99.90;;;;;;5077846;28;20040;-60
2023/05/26 12:20:18;;;;;;;19.20;4.32;;;16.20;99.90;;;;;;5079125;28;20074;-58
2023/05/26 12:22:44;;;;;;;15.02;3.40;;;16.00;99.90;;;;;;5077329;28;20040;-58
2023/05/26 12:25:10;;;;;;;13.20;3.25;;;16.20;99.90;;;;;;5079149;28;20136;-58
2023/05/26 12:27:39;;;;;;;16.25;4.07;;;16.50;99.90;;;;;;5077113;28;20044;-59
2023/05/26 12:30:18;;;;;;;18.25;3.55;;;16.30;99.90;;;;;;5078408;28;20036;-58
2023/05/26 12:32:45;;;;;;;17.02;3.83;;;16.40;99.90;;;;;;5078760;28;20055;-58
2023/05/26 12:35:11;;;;;;;16.50;4.13;;;16.40;99.90;;;;;;5077112;28;20055;-59
2023/05/26 12:37:37;;;;;;;18.27;3.60;;;16.20;99.90;;;;;;5078966;28;20072;-58
2023/05/26 12:40:04;;;;;;;16.15;4.25;;;16.50;99.90;;;;;;5058650;28;20048;-58
2023/05/26 12:42:30;;;;;;;13.85;4.20;;;16.40;99.90;;;;;;5078683;28;20503;-58